createdAt,value
2023-05-25T06:45:21.370Z,8.57
2023-05-25T06:47:49.308Z,7.05
2023-05-25T06:50:18.091Z,8.00
2023-05-25T06:52:46.826Z,8.27
2023-05-25T06:55:14.960Z,7.35
2023-05-25T06:57:44.682Z,8.65
2023-05-25T07:00:14.089Z,8.38
2023-05-25T07:02:43.328Z,8.77
2023-05-25T07:05:11.570Z,8.13
2023-05-25T07:07:39.488Z,8.60
2023-05-25T07:10:08.890Z,8.65
2023-05-25T07:12:37.170Z,8.35
2023-05-25T07:15:05.903Z,7.78
2023-05-25T07:17:33.924Z,8.38
2023-05-25T07:20:04.674Z,8.23
2023-05-25T07:22:32.596Z,8.38
2023-05-25T07:25:00.534Z,7.68
2023-05-25T07:27:28.715Z,7.93
2023-05-25T07:29:56.695Z,8.10
2023-05-25T07:32:24.599Z,8.02
2023-05-25T07:34:52.747Z,7.97
2023-05-25T07:37:22.300Z,8.82
2023-05-25T07:39:50.571Z,8.20
2023-05-25T07:42:21.002Z,8.35
2023-05-25T07:44:50.038Z,8.80
2023-05-25T07:47:17.934Z,8.85
2023-05-25T07:49:45.958Z,9.02
2023-05-25T07:52:13.876Z,8.95
2023-05-25T07:54:43.169Z,9.25
2023-05-25T07:57:12.215Z,7.93
2023-05-25T07:59:40.140Z,8.10
2023-05-25T08:02:08.168Z,9.32
2023-05-25T08:04:37.506Z,8.30
2023-05-25T08:07:05.740Z,7.47
2023-05-25T08:09:33.637Z,8.48
2023-05-25T08:12:23.995Z,8.68
2023-05-25T08:14:50.925Z,8.07
2023-05-25T08:17:18.966Z,8.50
2023-05-25T08:19:46.956Z,7.97
2023-05-25T08:22:14.996Z,8.10
2023-05-25T08:24:42.996Z,7.82
2023-05-25T08:27:12.343Z,7.22
2023-05-25T08:29:40.223Z,8.27
2023-05-25T08:32:08.634Z,8.02
2023-05-25T08:34:36.517Z,7.60
2023-05-25T08:37:06.074Z,7.25
2023-05-25T08:39:35.001Z,7.40
2023-05-25T08:42:03.738Z,7.72
2023-05-25T08:44:33.001Z,6.97
2023-05-25T08:47:06.769Z,6.97
2023-05-25T08:49:38.120Z,7.65
2023-05-25T08:52:06.804Z,6.73
2023-05-25T08:54:37.764Z,7.43
2023-05-25T08:57:11.559Z,7.30
2023-05-25T08:59:47.765Z,8.05
2023-05-25T09:02:24.858Z,8.95
2023-05-25T09:04:53.298Z,7.05
2023-05-25T09:07:22.659Z,7.32
2023-05-25T09:09:51.282Z,7.75
2023-05-25T09:12:20.135Z,7.25
2023-05-25T09:14:49.618Z,7.30
2023-05-25T09:17:20.007Z,7.22
2023-05-25T09:19:48.497Z,7.30
2023-05-25T09:22:17.102Z,7.50
2023-05-25T09:24:45.957Z,8.13
2023-05-25T09:27:18.304Z,7.95
2023-05-25T09:29:49.540Z,7.47
2023-05-25T09:32:18.532Z,8.27
2023-05-25T09:34:47.166Z,8.55
2023-05-25T09:37:19.058Z,8.73
2023-05-25T09:39:48.205Z,8.75
2023-05-25T09:42:16.335Z,9.02
2023-05-25T09:44:45.076Z,7.72
2023-05-25T09:47:16.809Z,8.52
2023-05-25T09:49:47.491Z,8.48
2023-05-25T09:52:16.399Z,8.50
2023-05-25T09:54:45.829Z,8.50
2023-05-25T09:57:13.833Z,8.10
2023-05-25T09:59:43.057Z,8.40
2023-05-25T10:02:11.011Z,7.93
2023-05-25T10:04:41.401Z,8.60
2023-05-25T10:07:09.913Z,9.30
2023-05-25T10:09:42.166Z,8.95
2023-05-25T10:14:39.255Z,7.53
2023-05-25T10:17:11.229Z,7.35
2023-05-25T10:19:45.884Z,7.50
2023-05-25T10:22:17.404Z,7.63
2023-05-25T10:24:55.097Z,7.68
2023-05-25T10:27:27.142Z,7.55
2023-05-25T10:29:57.763Z,7.95
2023-05-25T10:32:27.171Z,7.55
2023-05-25T10:34:58.127Z,7.63
2023-05-25T10:37:28.424Z,6.45
2023-05-25T10:40:00.402Z,6.80
2023-05-25T10:42:29.666Z,6.43
2023-05-25T10:44:58.070Z,6.53
2023-05-25T10:47:26.598Z,6.97
2023-05-25T10:49:57.901Z,8.00
2023-05-25T10:52:29.061Z,7.20
2023-05-25T10:54:58.178Z,7.70
2023-05-25T10:57:27.317Z,7.57
2023-05-25T11:00:01.546Z,7.63
2023-05-25T11:02:30.366Z,7.30
2023-05-25T11:05:32.203Z,7.93
2023-05-25T11:08:02.567Z,7.13
2023-05-25T11:10:44.301Z,7.20
2023-05-25T11:13:34.046Z,6.80
2023-05-25T11:16:24.711Z,7.68
2023-05-25T11:18:54.884Z,6.57
2023-05-25T11:21:24.980Z,6.97
2023-05-25T11:24:00.315Z,6.85
2023-05-25T11:26:30.352Z,6.72
2023-05-25T11:29:00.244Z,7.45
2023-05-25T11:31:34.199Z,7.20
2023-05-25T11:34:06.185Z,7.38
2023-05-25T11:36:36.125Z,7.50
2023-05-25T11:39:17.254Z,7.68
2023-05-25T11:41:50.169Z,7.28
2023-05-25T11:44:28.202Z,7.38
2023-05-25T11:46:58.092Z,7.75
2023-05-25T11:49:26.429Z,8.30
2023-05-25T11:51:54.902Z,7.72
2023-05-25T11:54:25.944Z,7.82
2023-05-25T11:56:57.270Z,7.82
2023-05-25T11:59:28.155Z,9.10
2023-05-25T12:04:26.070Z,7.63
2023-05-25T12:06:54.332Z,8.32
2023-05-25T12:09:24.751Z,8.93
2023-05-25T12:11:53.472Z,8.43
2023-05-25T12:14:22.368Z,9.10
2023-05-25T12:16:51.193Z,8.05
2023-05-25T12:19:20.077Z,8.93
2023-05-25T12:21:51.167Z,8.07
2023-05-25T12:24:19.854Z,9.00
2023-05-25T12:26:57.381Z,9.30
2023-05-25T12:29:26.334Z,9.43
2023-05-25T12:31:54.393Z,8.52
2023-05-25T12:34:22.702Z,9.23
2023-05-25T12:36:52.224Z,9.38
2023-05-25T12:39:35.358Z,8.77
2023-05-25T12:42:05.371Z,10.02
2023-05-25T12:44:35.373Z,9.25
2023-05-25T12:47:15.302Z,9.00
2023-05-25T12:49:44.948Z,8.43
2023-05-25T12:52:32.248Z,9.48
2023-05-25T12:55:01.751Z,9.20
2023-05-25T12:57:36.889Z,9.65
2023-05-25T13:00:05.516Z,9.27
2023-05-25T13:02:33.409Z,9.38
2023-05-25T13:05:02.047Z,9.30
2023-05-25T13:07:30.395Z,8.88
2023-05-25T13:09:58.440Z,8.73
2023-05-25T13:12:26.342Z,8.50
2023-05-25T13:14:55.528Z,9.70
2023-05-25T13:17:23.416Z,8.00
2023-05-25T13:19:51.301Z,7.60
2023-05-25T13:22:19.705Z,7.70
2023-05-25T13:24:47.735Z,6.88
2023-05-25T13:27:15.641Z,8.05
2023-05-25T13:29:43.476Z,8.32
2023-05-25T13:32:12.714Z,8.50
2023-05-25T13:34:40.748Z,7.38
2023-05-25T13:37:08.677Z,8.43
2023-05-25T13:39:37.066Z,7.95
2023-05-25T13:42:05.187Z,7.40
2023-05-25T13:44:33.953Z,7.45
2023-05-25T13:47:01.834Z,7.47
2023-05-25T13:49:31.033Z,6.90
2023-05-25T13:51:58.881Z,6.20
2023-05-25T13:54:26.784Z,6.90
2023-05-25T13:56:54.844Z,6.07
2023-05-25T13:59:23.166Z,7.07
2023-05-25T14:01:53.607Z,6.40
2023-05-25T14:04:23.165Z,6.80
2023-05-25T14:06:52.441Z,6.35
2023-05-25T14:09:20.729Z,7.68
2023-05-25T14:11:48.601Z,6.70
2023-05-25T14:14:30.020Z,6.50
2023-05-25T14:19:26.162Z,6.25
2023-05-25T14:24:26.761Z,6.07
2023-05-25T14:26:54.739Z,5.72
2023-05-25T14:29:22.646Z,5.55
2023-05-25T14:31:50.844Z,5.72
2023-05-25T14:34:18.781Z,5.80
2023-05-25T14:36:46.660Z,5.43
2023-05-25T14:39:17.386Z,6.05
2023-05-25T14:41:45.715Z,5.35
2023-05-25T14:44:13.548Z,5.47
2023-05-25T14:46:41.703Z,6.00
2023-05-25T14:49:09.630Z,4.38
2023-05-25T14:51:37.970Z,4.38
2023-05-25T14:54:07.225Z,5.88
2023-05-25T14:56:36.599Z,5.57
2023-05-25T14:59:04.492Z,4.57
2023-05-25T15:01:32.385Z,3.92
2023-05-25T15:04:00.367Z,5.05
2023-05-25T15:06:28.589Z,4.75
2023-05-25T15:08:56.441Z,4.30
2023-05-25T15:11:24.407Z,5.00
2023-05-25T15:13:53.785Z,4.90
2023-05-25T15:16:21.808Z,5.50
2023-05-25T15:18:50.983Z,5.47
2023-05-25T22:13:48.283Z,6.65
2023-05-25T22:16:16.270Z,6.53
2023-05-25T22:18:44.487Z,5.97
2023-05-25T22:21:12.548Z,6.50
2023-05-25T22:23:40.521Z,6.53
2023-05-25T22:26:08.559Z,6.25
2023-05-25T22:28:36.511Z,6.07
2023-05-25T22:31:06.159Z,6.50
2023-05-25T22:33:34.442Z,6.22
2023-05-25T22:36:02.397Z,5.97
2023-05-25T22:38:30.321Z,5.85
2023-05-25T22:40:58.340Z,6.15
2023-05-25T22:43:27.026Z,5.72
2023-05-25T22:45:55.072Z,6.25
2023-05-25T22:48:24.589Z,6.47
2023-05-25T22:50:52.679Z,5.70
2023-05-25T22:53:21.150Z,6.65
2023-05-25T22:55:49.452Z,6.30
2023-05-25T22:58:17.862Z,5.85
2023-05-25T23:00:46.000Z,6.13
2023-05-25T23:03:14.265Z,6.38
2023-05-25T23:05:43.933Z,6.45
2023-05-25T23:08:12.259Z,6.00
2023-05-25T23:10:50.573Z,6.07
2023-05-25T23:16:05.362Z,6.10
2023-05-25T23:21:05.868Z,6.13
2023-05-25T23:23:33.968Z,6.22
2023-05-25T23:26:07.865Z,6.75
2023-05-25T23:28:43.090Z,6.10
2023-05-25T23:31:49.418Z,6.20
2023-05-25T23:34:23.876Z,6.20
2023-05-25T23:37:01.521Z,5.80
2023-05-25T23:39:29.659Z,6.32
2023-05-25T23:42:07.877Z,6.53
2023-05-25T23:44:40.810Z,6.53
